createdAt,value
2018-01-01T00:00:21.392Z,991.9
2018-01-01T00:01:30.009Z,991.85
2018-01-01T00:02:38.609Z,991.79
2018-01-01T00:03:47.208Z,991.75
2018-01-01T00:04:55.821Z,991.79
2018-01-01T00:06:04.438Z,991.76
2018-01-01T00:07:13.025Z,991.83
2018-01-01T00:08:21.637Z,991.88
2018-01-01T00:09:30.512Z,991.92
2018-01-01T00:10:39.369Z,991.84
2018-01-01T00:11:48.241Z,991.83
2018-01-01T00:12:56.903Z,991.79
2018-01-01T00:14:05.449Z,991.79
2018-01-01T00:15:14.054Z,991.88
2018-01-01T00:16:22.646Z,992
2018-01-01T00:17:31.258Z,992.02
2018-01-01T00:18:39.865Z,992.01
2018-01-01T00:19:48.462Z,992.12
2018-01-01T00:20:57.071Z,992.05
2018-01-01T00:22:05.953Z,992.15
2018-01-01T00:23:14.545Z,992.15
2018-01-01T00:24:23.149Z,992.19
2018-01-01T00:25:31.761Z,992.15
2018-01-01T00:26:40.362Z,992.05
2018-01-01T00:27:48.962Z,992.02
2018-01-01T00:28:57.619Z,992.03
2018-01-01T00:30:06.174Z,992.05
2018-01-01T00:31:14.789Z,992.12
2018-01-01T00:32:23.383Z,992.14
2018-01-01T00:33:31.984Z,992.09
2018-01-01T00:34:40.595Z,992.16
2018-01-01T00:35:49.193Z,992.25
2018-01-01T00:36:57.793Z,992.25
2018-01-01T00:38:06.666Z,992.31
2018-01-01T00:39:15.269Z,992.36
2018-01-01T00:40:23.864Z,992.35
2018-01-01T00:41:32.470Z,992.31
2018-01-01T00:42:41.074Z,992.35
2018-01-01T00:43:49.666Z,992.41
2018-01-01T00:44:58.280Z,992.39
2018-01-01T00:46:06.890Z,992.42
2018-01-01T00:47:15.481Z,992.38
2018-01-01T00:48:24.087Z,992.36
2018-01-01T00:49:32.961Z,992.21
2018-01-01T00:50:41.552Z,992.35
2018-01-01T00:51:50.159Z,992.39
2018-01-01T00:52:59.305Z,992.41
2018-01-01T00:54:08.155Z,992.37
2018-01-01T00:55:16.755Z,992.39
2018-01-01T00:56:25.367Z,992.23
2018-01-01T00:57:33.968Z,992.25
2018-01-01T00:58:42.578Z,992.37
2018-01-01T00:59:51.171Z,992.28
2018-01-01T01:00:59.773Z,992.32
2018-01-01T01:02:08.385Z,992.29
2018-01-01T01:03:17.242Z,992.35
2018-01-01T01:04:25.840Z,992.26
2018-01-01T01:05:34.457Z,992.2
2018-01-01T01:06:43.055Z,992.18
2018-01-01T01:07:51.908Z,992.22
2018-01-01T01:09:00.520Z,992.23
2018-01-01T01:10:09.130Z,992.11
2018-01-01T01:11:17.725Z,992.17
2018-01-01T01:12:26.334Z,992.17
2018-01-01T01:13:34.929Z,992.27
2018-01-01T01:14:43.546Z,992.23
2018-01-01T01:15:52.141Z,992.17
2018-01-01T01:17:00.733Z,992.16
2018-01-01T01:18:09.346Z,992.18
2018-01-01T01:19:17.952Z,992.22
2018-01-01T01:20:26.552Z,992.21
2018-01-01T01:21:35.161Z,992.28
2018-01-01T01:22:43.771Z,992.36
2018-01-01T01:23:52.363Z,992.34
2018-01-01T01:25:00.969Z,992.43
2018-01-01T01:26:09.579Z,992.28
2018-01-01T01:27:18.177Z,992.29
2018-01-01T01:28:26.785Z,992.23
2018-01-01T01:29:35.376Z,992.34
2018-01-01T01:30:43.987Z,992.32
2018-01-01T01:31:52.595Z,992.3
2018-01-01T01:33:01.187Z,992.24
2018-01-01T01:34:09.793Z,992.18
2018-01-01T01:35:18.410Z,992.26
2018-01-01T01:36:27.000Z,992.35
2018-01-01T01:37:35.600Z,992.28
2018-01-01T01:38:44.476Z,992.33
2018-01-01T01:39:53.071Z,992.34
2018-01-01T01:41:01.674Z,992.36
2018-01-01T01:42:10.279Z,992.32
2018-01-01T01:43:18.888Z,992.35
2018-01-01T01:44:27.497Z,992.28
2018-01-01T01:45:36.345Z,992.24
2018-01-01T01:46:44.947Z,992.22
2018-01-01T01:47:53.560Z,992.4
2018-01-01T01:49:02.158Z,992.35
2018-01-01T01:50:10.753Z,992.32
2018-01-01T01:51:19.365Z,992.31
2018-01-01T01:52:28.220Z,992.37
2018-01-01T01:53:36.813Z,992.35
2018-01-01T01:54:45.426Z,992.31
2018-01-01T01:55:54.030Z,992.28
2018-01-01T01:57:02.634Z,992.31
2018-01-01T01:58:11.229Z,992.34
2018-01-01T01:59:19.833Z,992.43
2018-01-01T02:00:28.707Z,992.36
2018-01-01T02:01:37.305Z,992.3
2018-01-01T02:02:45.895Z,992.41
2018-01-01T02:03:55.044Z,992.37
2018-01-01T02:05:03.647Z,992.41
2018-01-01T02:06:12.501Z,992.29
2018-01-01T02:07:21.110Z,992.36
2018-01-01T02:08:29.724Z,992.37
2018-01-01T02:09:38.315Z,992.33
2018-01-01T02:10:46.921Z,992.29
2018-01-01T02:11:55.519Z,992.35
2018-01-01T02:13:04.132Z,992.35
2018-01-01T02:14:12.732Z,992.37
2018-01-01T02:15:21.328Z,992.4
2018-01-01T02:16:29.937Z,992.38
2018-01-01T02:17:38.549Z,992.44
2018-01-01T02:18:47.137Z,992.36
2018-01-01T02:19:55.742Z,992.31
2018-01-01T02:21:04.360Z,992.34
2018-01-01T02:22:12.950Z,992.3
2018-01-01T02:23:21.548Z,992.35
2018-01-01T02:24:30.161Z,992.39
2018-01-01T02:25:38.758Z,992.27
2018-01-01T02:26:47.365Z,992.31
2018-01-01T02:27:55.959Z,992.31
2018-01-01T02:29:04.567Z,992.35
2018-01-01T02:30:13.184Z,992.32
2018-01-01T02:31:21.774Z,992.31
2018-01-01T02:32:30.372Z,992.33
2018-01-01T02:33:38.986Z,992.27
2018-01-01T02:34:47.583Z,992.22
2018-01-01T02:35:56.179Z,992.29
2018-01-01T02:37:04.793Z,992.27
2018-01-01T02:38:13.396Z,992.27
2018-01-01T02:39:21.984Z,992.21
2018-01-01T02:40:30.601Z,992.25
2018-01-01T02:41:39.207Z,992.15
2018-01-01T02:42:47.804Z,992.15
2018-01-01T02:43:56.411Z,992.23
2018-01-01T02:45:05.019Z,992.15
2018-01-01T02:46:13.870Z,992.18
2018-01-01T02:47:22.474Z,992.14
2018-01-01T02:48:31.089Z,992.19
2018-01-01T02:49:39.685Z,992.11
2018-01-01T02:50:48.287Z,992.15
2018-01-01T02:51:57.165Z,992.25
2018-01-01T02:53:05.762Z,992.23
2018-01-01T02:54:14.367Z,992.24
2018-01-01T02:55:23.236Z,992.13
2018-01-01T02:56:31.837Z,992.16
2018-01-01T02:57:40.448Z,992.14
2018-01-01T02:58:49.045Z,992.26
2018-01-01T02:59:57.649Z,992.2
2018-01-01T03:01:06.532Z,992.07
2018-01-01T03:02:15.125Z,992.05
2018-01-01T03:03:23.720Z,992.15
2018-01-01T03:04:32.329Z,992.09
2018-01-01T03:05:40.932Z,992.15
2018-01-01T03:06:49.531Z,992.07
2018-01-01T03:07:58.138Z,992.12
2018-01-01T03:09:06.743Z,992.16
2018-01-01T03:10:15.347Z,992.22
2018-01-01T03:11:23.941Z,992.1
2018-01-01T03:12:32.542Z,992.12
2018-01-01T03:13:41.151Z,992.01
2018-01-01T03:14:49.751Z,992.01
2018-01-01T03:15:58.340Z,992.03
2018-01-01T03:17:06.955Z,992.03
2018-01-01T03:18:15.555Z,991.88
2018-01-01T03:19:24.152Z,992.04
2018-01-01T03:20:32.762Z,992.05
2018-01-01T03:21:41.368Z,992.05
2018-01-01T03:22:49.958Z,992.02
2018-01-01T03:23:58.563Z,992.11
2018-01-01T03:25:07.421Z,992.09
2018-01-01T03:26:16.031Z,992.07
2018-01-01T03:27:24.634Z,992.11
2018-01-01T03:28:33.227Z,992.11
2018-01-01T03:29:41.838Z,991.93
2018-01-01T03:30:50.447Z,991.99
2018-01-01T03:31:59.040Z,992.15
2018-01-01T03:33:07.645Z,992.12
2018-01-01T03:34:16.252Z,992.18
2018-01-01T03:35:24.851Z,992.11
2018-01-01T03:36:33.450Z,992.09
2018-01-01T03:37:42.058Z,992.21
2018-01-01T03:38:50.656Z,992.15
2018-01-01T03:39:59.265Z,992.06
2018-01-01T03:41:07.856Z,992.43
2018-01-01T03:42:16.463Z,992.2
2018-01-01T03:43:25.074Z,992.35
2018-01-01T03:44:33.667Z,992.26
2018-01-01T03:45:42.265Z,992.46
2018-01-01T03:46:50.877Z,992.33
2018-01-01T03:47:59.729Z,992.43
2018-01-01T03:49:08.343Z,992.41
2018-01-01T03:50:16.954Z,992.4
2018-01-01T03:51:25.555Z,992.5
2018-01-01T03:52:34.147Z,992.49
2018-01-01T03:53:42.754Z,992.54
2018-01-01T03:54:51.356Z,992.54
2018-01-01T03:55:59.968Z,992.46
2018-01-01T03:57:08.566Z,992.6
2018-01-01T03:58:17.164Z,992.57
2018-01-01T03:59:25.777Z,992.55
2018-01-01T04:00:34.380Z,992.54
2018-01-01T04:01:42.968Z,992.54
2018-01-01T04:02:51.585Z,992.53
2018-01-01T04:04:00.185Z,992.65
2018-01-01T04:05:08.781Z,992.67
2018-01-01T04:06:17.394Z,992.49
2018-01-01T04:07:25.993Z,992.68
2018-01-01T04:08:34.591Z,992.59
2018-01-01T04:09:43.190Z,992.68
2018-01-01T04:10:51.783Z,992.66
2018-01-01T04:12:00.396Z,992.59
2018-01-01T04:13:09.001Z,992.7
2018-01-01T04:14:17.596Z,992.62
2018-01-01T04:15:26.206Z,992.68
2018-01-01T04:16:34.816Z,992.78
2018-01-01T04:17:43.408Z,992.74
2018-01-01T04:18:52.008Z,992.74
2018-01-01T04:20:00.622Z,992.81
2018-01-01T04:21:09.214Z,992.7
2018-01-01T04:22:17.816Z,992.78
2018-01-01T04:23:26.416Z,992.54
2018-01-01T04:24:35.280Z,992.71
2018-01-01T04:25:43.888Z,992.73
2018-01-01T04:26:52.484Z,992.73
2018-01-01T04:28:01.086Z,992.88
2018-01-01T04:29:09.704Z,992.73
2018-01-01T04:30:18.291Z,992.68
2018-01-01T04:31:26.890Z,992.89
2018-01-01T04:32:35.506Z,992.96
2018-01-01T04:33:44.100Z,992.88
2018-01-01T04:34:52.699Z,992.83
2018-01-01T04:36:01.313Z,992.89
2018-01-01T04:37:09.911Z,992.99
2018-01-01T04:38:18.501Z,992.85
2018-01-01T04:39:27.117Z,993.05
2018-01-01T04:40:35.723Z,992.83
2018-01-01T04:41:44.318Z,993.26
2018-01-01T04:42:52.923Z,993.03
2018-01-01T04:44:01.530Z,993.11
2018-01-01T04:45:10.122Z,993.12
2018-01-01T04:46:18.729Z,993.11
2018-01-01T04:47:27.344Z,993.18
2018-01-01T04:48:35.934Z,993.34
2018-01-01T04:49:44.533Z,993.31
2018-01-01T04:50:53.143Z,993.28
2018-01-01T04:52:01.740Z,993.24
2018-01-01T04:53:10.351Z,993.35
2018-01-01T04:54:18.938Z,993.37
2018-01-01T04:55:27.542Z,993.32
2018-01-01T04:56:36.152Z,993.42
2018-01-01T04:57:44.746Z,993.31
2018-01-01T04:58:53.345Z,993.37
2018-01-01T05:00:01.960Z,993.3
2018-01-01T05:01:10.551Z,993.43
2018-01-01T05:02:19.144Z,993.53
2018-01-01T05:03:27.757Z,993.63
2018-01-01T05:04:36.356Z,993.54
2018-01-01T05:05:44.951Z,993.53
2018-01-01T05:06:53.556Z,993.63
2018-01-01T05:08:02.152Z,993.69
2018-01-01T05:09:10.766Z,993.62
2018-01-01T05:10:19.362Z,993.64
2018-01-01T05:11:27.962Z,993.73
2018-01-01T05:12:36.575Z,993.81
2018-01-01T05:13:45.437Z,993.82
2018-01-01T05:14:54.025Z,993.88
2018-01-01T05:16:02.641Z,993.92
2018-01-01T05:17:11.249Z,993.91
2018-01-01T05:18:19.836Z,993.97
2018-01-01T05:19:28.446Z,993.94
2018-01-01T05:20:37.049Z,993.99
2018-01-01T05:21:45.648Z,994.09
2018-01-01T05:22:54.250Z,994.11
2018-01-01T05:24:02.838Z,994.06
2018-01-01T05:25:11.449Z,994.18
2018-01-01T05:26:20.057Z,994.04
2018-01-01T05:27:28.643Z,994.11
2018-01-01T05:28:37.256Z,994.12
2018-01-01T05:29:45.866Z,994.18
2018-01-01T05:30:54.458Z,994.14
2018-01-01T05:32:03.060Z,994.21
2018-01-01T05:33:11.669Z,994.28
2018-01-01T05:34:20.262Z,994.25
2018-01-01T05:35:28.861Z,994.2
2018-01-01T05:36:37.458Z,994.16
2018-01-01T05:37:46.070Z,994.17
2018-01-01T05:38:54.674Z,994.24
2018-01-01T05:40:03.267Z,994.25
2018-01-01T05:41:11.869Z,994.31
2018-01-01T05:42:20.478Z,994.35
2018-01-01T05:43:29.072Z,994.41
2018-01-01T05:44:37.672Z,994.45
2018-01-01T05:45:46.285Z,994.49
2018-01-01T05:46:54.878Z,994.46
2018-01-01T05:48:03.476Z,994.48
2018-01-01T05:49:12.346Z,994.46
2018-01-01T05:50:20.944Z,994.49
2018-01-01T05:51:29.550Z,994.58
2018-01-01T05:52:38.143Z,994.63
2018-01-01T05:53:46.995Z,994.58
2018-01-01T05:54:55.605Z,994.57
2018-01-01T05:56:04.201Z,994.5
2018-01-01T05:57:12.798Z,994.59
2018-01-01T05:58:21.412Z,994.58
2018-01-01T05:59:30.010Z,994.51
2018-01-01T06:00:38.598Z,994.56
2018-01-01T06:01:47.208Z,994.56
2018-01-01T06:02:55.814Z,994.62
2018-01-01T06:04:04.400Z,994.62
2018-01-01T06:05:13.268Z,994.74
2018-01-01T06:06:21.861Z,994.79
2018-01-01T06:07:30.475Z,994.51
2018-01-01T06:08:39.336Z,994.78
2018-01-01T06:09:47.926Z,994.78
2018-01-01T06:10:56.539Z,994.76
2018-01-01T06:12:05.141Z,994.8
2018-01-01T06:13:13.733Z,994.82
2018-01-01T06:14:22.602Z,994.84
2018-01-01T06:15:31.212Z,994.92
2018-01-01T06:16:39.801Z,995.03
2018-01-01T06:17:48.403Z,994.98
2018-01-01T06:18:57.015Z,994.96
2018-01-01T06:20:05.609Z,994.96
2018-01-01T06:21:14.472Z,994.87
2018-01-01T06:22:23.059Z,994.9
2018-01-01T06:23:31.934Z,994.93
2018-01-01T06:24:40.541Z,994.92
2018-01-01T06:25:49.134Z,994.93
2018-01-01T06:26:57.745Z,994.89
2018-01-01T06:28:06.360Z,994.96
2018-01-01T06:29:14.952Z,994.99
2018-01-01T06:30:23.549Z,995.02
2018-01-01T06:31:32.161Z,995.06
2018-01-01T06:32:40.760Z,995.06
2018-01-01T06:33:49.611Z,994.97
2018-01-01T06:34:58.223Z,994.95
2018-01-01T06:36:06.821Z,994.99
2018-01-01T06:37:15.407Z,994.99
2018-01-01T06:38:24.030Z,994.96
2018-01-01T06:39:32.630Z,994.96
2018-01-01T06:40:41.492Z,994.99
2018-01-01T06:41:50.098Z,995.05
2018-01-01T06:42:58.707Z,995.01
2018-01-01T06:44:07.299Z,995.06
2018-01-01T06:45:15.900Z,995.15
2018-01-01T06:46:24.508Z,995.17
2018-01-01T06:47:33.103Z,995.15
2018-01-01T06:48:41.703Z,995.11
2018-01-01T06:49:50.301Z,995.08
2018-01-01T06:50:59.169Z,995.11
2018-01-01T06:52:08.089Z,995.12
2018-01-01T06:53:16.630Z,995.15
2018-01-01T06:54:25.232Z,995.25
2018-01-01T06:55:33.839Z,995.32
2018-01-01T06:56:42.430Z,995.34
2018-01-01T06:57:51.032Z,995.33
2018-01-01T06:58:59.643Z,995.37
2018-01-01T07:00:08.240Z,995.44
2018-01-01T07:01:16.838Z,995.39
2018-01-01T07:02:25.448Z,995.53
2018-01-01T07:03:34.049Z,995.49
2018-01-01T07:04:42.660Z,995.45
2018-01-01T07:05:51.248Z,995.34
2018-01-01T07:06:59.846Z,995.39
2018-01-01T07:08:08.455Z,995.51
2018-01-01T07:09:17.055Z,995.47
2018-01-01T07:10:25.651Z,995.63
2018-01-01T07:11:34.262Z,995.69
2018-01-01T07:12:42.868Z,995.77
2018-01-01T07:13:51.459Z,995.83
2018-01-01T07:15:00.073Z,995.79
2018-01-01T07:16:08.686Z,995.89
2018-01-01T07:17:17.277Z,995.83
2018-01-01T07:18:25.883Z,995.91
2018-01-01T07:19:34.476Z,995.98
2018-01-01T07:20:43.091Z,995.94
2018-01-01T07:21:51.692Z,995.88
2018-01-01T07:23:00.538Z,995.94
2018-01-01T07:24:09.149Z,995.91
2018-01-01T07:25:17.747Z,995.93
2018-01-01T07:26:26.343Z,995.92
2018-01-01T07:27:34.951Z,995.99
2018-01-01T07:28:43.560Z,996.11
2018-01-01T07:29:52.151Z,996.1
2018-01-01T07:31:00.753Z,996.21
2018-01-01T07:32:09.362Z,996.19
2018-01-01T07:33:17.959Z,996.14
2018-01-01T07:34:26.563Z,996.18
2018-01-01T07:35:35.155Z,996.09
2018-01-01T07:36:43.759Z,996.13
2018-01-01T07:37:52.368Z,996.13
2018-01-01T07:39:00.957Z,996.12
2018-01-01T07:40:09.561Z,996.12
2018-01-01T07:41:18.170Z,996.06
2018-01-01T07:42:26.762Z,996.02
2018-01-01T07:43:35.360Z,996.03
2018-01-01T07:44:43.975Z,996.01
2018-01-01T07:45:52.566Z,995.95
2018-01-01T07:47:01.160Z,996.03
2018-01-01T07:48:09.765Z,996.05
2018-01-01T07:49:18.365Z,996.18
2018-01-01T07:50:26.973Z,996.31
2018-01-01T07:51:35.562Z,996.34
2018-01-01T07:52:44.161Z,996.16
2018-01-01T07:53:52.772Z,996.24
2018-01-01T07:55:01.367Z,996.05
2018-01-01T07:56:09.961Z,996.01
2018-01-01T07:57:18.571Z,996.04
2018-01-01T07:58:27.169Z,996.11
2018-01-01T07:59:35.763Z,996.1
2018-01-01T08:00:44.371Z,996.08
2018-01-01T08:01:52.978Z,996.15
2018-01-01T08:03:01.578Z,996.21
2018-01-01T08:04:10.174Z,996.17
2018-01-01T08:05:18.768Z,996.18
2018-01-01T08:06:27.379Z,996.18
2018-01-01T08:07:35.977Z,996.15
2018-01-01T08:08:44.568Z,996.2
2018-01-01T08:09:53.177Z,996.23
2018-01-01T08:11:01.781Z,996.25
2018-01-01T08:12:10.370Z,996.25
2018-01-01T08:13:18.978Z,996.25
2018-01-01T08:14:27.586Z,996.2
2018-01-01T08:15:36.173Z,996.22
2018-01-01T08:16:44.776Z,996.23
2018-01-01T08:17:53.375Z,996.29
2018-01-01T08:19:01.981Z,996.34
2018-01-01T08:20:10.583Z,996.39
2018-01-01T08:21:19.169Z,996.38
2018-01-01T08:22:27.779Z,996.38
2018-01-01T08:23:36.386Z,996.33
2018-01-01T08:24:44.975Z,996.34
2018-01-01T08:25:53.581Z,996.41
2018-01-01T08:27:02.190Z,996.41
2018-01-01T08:28:10.780Z,996.48
2018-01-01T08:29:19.375Z,996.38
2018-01-01T08:30:27.990Z,996.44
2018-01-01T08:31:36.843Z,996.47
2018-01-01T08:32:45.433Z,996.45
2018-01-01T08:33:54.043Z,996.5
2018-01-01T08:35:02.643Z,996.45
2018-01-01T08:36:11.232Z,996.52
2018-01-01T08:37:19.848Z,996.56
2018-01-01T08:38:28.453Z,996.5
2018-01-01T08:39:37.048Z,996.65
2018-01-01T08:40:45.651Z,996.46
2018-01-01T08:41:54.259Z,996.58
2018-01-01T08:43:02.846Z,996.57
2018-01-01T08:44:11.449Z,996.64
2018-01-01T08:45:20.324Z,996.63
2018-01-01T08:46:29.180Z,996.69
2018-01-01T08:47:37.784Z,996.67
2018-01-01T08:48:46.373Z,996.76
2018-01-01T08:49:54.983Z,996.73
2018-01-01T08:51:03.593Z,996.81
2018-01-01T08:52:12.183Z,996.74
2018-01-01T08:53:20.788Z,996.84
2018-01-01T08:54:29.399Z,996.75
2018-01-01T08:55:37.993Z,996.67
2018-01-01T08:56:46.592Z,996.66
2018-01-01T08:57:55.206Z,996.76
2018-01-01T08:59:03.800Z,996.7
2018-01-01T09:00:12.690Z,996.67
2018-01-01T09:01:21.297Z,996.64
2018-01-01T09:02:29.903Z,996.64
2018-01-01T09:03:38.515Z,996.71
2018-01-01T09:04:47.103Z,996.7
2018-01-01T09:05:55.701Z,996.72
2018-01-01T09:07:04.314Z,996.73
2018-01-01T09:08:12.916Z,996.73
2018-01-01T09:09:21.506Z,996.74
2018-01-01T09:10:30.118Z,996.79
2018-01-01T09:11:38.718Z,996.78
2018-01-01T09:12:47.309Z,996.77
2018-01-01T09:13:55.923Z,996.8
2018-01-01T09:15:04.547Z,996.8
2018-01-01T09:16:13.127Z,996.83
2018-01-01T09:17:21.724Z,996.82
2018-01-01T09:18:30.316Z,996.82
2018-01-01T09:19:38.926Z,996.67
2018-01-01T09:20:47.528Z,996.83
2018-01-01T09:21:56.119Z,996.85
2018-01-01T09:23:04.732Z,996.83
2018-01-01T09:24:13.334Z,996.81
2018-01-01T09:25:21.927Z,996.85
2018-01-01T09:26:30.533Z,996.82
2018-01-01T09:27:39.142Z,996.79
2018-01-01T09:28:47.991Z,996.81
2018-01-01T09:29:56.594Z,996.83
2018-01-01T09:31:05.206Z,996.86
2018-01-01T09:32:13.798Z,996.86
2018-01-01T09:33:22.401Z,996.87
2018-01-01T09:34:31.010Z,996.86
2018-01-01T09:35:39.605Z,996.85
2018-01-01T09:36:48.201Z,996.86
2018-01-01T09:37:57.076Z,996.84
2018-01-01T09:39:05.676Z,996.82
2018-01-01T09:40:14.263Z,996.91
2018-01-01T09:41:22.871Z,996.86
2018-01-01T09:42:31.477Z,996.76
2018-01-01T09:43:40.067Z,996.85
2018-01-01T09:44:48.675Z,996.85
2018-01-01T09:45:57.273Z,996.9
2018-01-01T09:47:05.883Z,996.94
2018-01-01T09:48:14.483Z,996.87
2018-01-01T09:49:23.074Z,996.88
2018-01-01T09:50:31.943Z,996.9
2018-01-01T09:51:40.544Z,996.85
2018-01-01T09:52:49.137Z,996.84
2018-01-01T09:53:57.744Z,996.85
2018-01-01T09:55:06.350Z,996.8
2018-01-01T09:56:14.943Z,996.84
2018-01-01T09:57:23.544Z,996.89
2018-01-01T09:58:32.158Z,996.83
2018-01-01T09:59:40.750Z,996.79
2018-01-01T10:00:49.354Z,996.81
2018-01-01T10:01:57.949Z,996.71
2018-01-01T10:03:06.557Z,996.72
2018-01-01T10:04:15.165Z,996.66
2018-01-01T10:05:23.757Z,996.69
2018-01-01T10:06:32.374Z,996.7
2018-01-01T10:07:40.975Z,996.63
2018-01-01T10:08:49.567Z,996.6
2018-01-01T10:09:58.164Z,996.55
2018-01-01T10:11:06.776Z,996.52
2018-01-01T10:12:15.372Z,996.54
2018-01-01T10:13:23.968Z,996.54
2018-01-01T10:14:32.574Z,996.45
2018-01-01T10:15:41.175Z,996.47
2018-01-01T10:16:49.785Z,996.43
2018-01-01T10:17:58.382Z,996.35
2018-01-01T10:19:06.989Z,996.46
2018-01-01T10:20:15.595Z,996.52
2018-01-01T10:21:24.191Z,996.49
2018-01-01T10:22:32.791Z,996.48
2018-01-01T10:23:41.400Z,996.42
2018-01-01T10:24:50.005Z,996.48
2018-01-01T10:25:58.593Z,996.44
2018-01-01T10:27:07.208Z,996.38
2018-01-01T10:28:15.814Z,996.34
2018-01-01T10:29:24.406Z,996.37
2018-01-01T10:30:33.271Z,996.37
2018-01-01T10:31:41.879Z,996.29
2018-01-01T10:32:50.471Z,996.32
2018-01-01T10:33:59.075Z,996.33
2018-01-01T10:35:07.691Z,996.31
2018-01-01T10:36:16.281Z,996.28
2018-01-01T10:37:24.882Z,996.35
2018-01-01T10:38:33.491Z,996.17
2018-01-01T10:39:42.090Z,996.27
2018-01-01T10:40:51.001Z,996.28
2018-01-01T10:41:59.614Z,996.32
2018-01-01T10:43:08.221Z,996.24
2018-01-01T10:44:17.087Z,996.23
2018-01-01T10:45:25.680Z,996.34
2018-01-01T10:46:34.278Z,996.34
2018-01-01T10:47:42.892Z,996.3
2018-01-01T10:48:51.487Z,996.26
2018-01-01T10:50:00.084Z,996.26
2018-01-01T10:51:08.956Z,996.28
2018-01-01T10:52:17.557Z,996.28
2018-01-01T10:53:26.151Z,996.32
2018-01-01T10:54:34.764Z,996.23
2018-01-01T10:55:43.375Z,996.27
2018-01-01T10:56:51.957Z,996.25
2018-01-01T10:58:00.570Z,996.3
2018-01-01T10:59:09.165Z,996.18
2018-01-01T11:00:18.039Z,996.25
2018-01-01T11:01:26.638Z,996.29
2018-01-01T11:02:35.228Z,996.27
2018-01-01T11:03:44.104Z,996.29
2018-01-01T11:04:52.709Z,996.19
2018-01-01T11:06:01.303Z,996.23
2018-01-01T11:07:09.912Z,996.26
2018-01-01T11:08:18.518Z,996.2
2018-01-01T11:09:27.365Z,996.21
2018-01-01T11:10:35.972Z,996.14
2018-01-01T11:11:44.587Z,996.16
2018-01-01T11:12:53.183Z,996.17
2018-01-01T11:14:01.786Z,996.15
2018-01-01T11:15:10.379Z,996.08
2018-01-01T11:16:18.986Z,996.06
2018-01-01T11:17:27.596Z,996.09
2018-01-01T11:18:36.184Z,995.99
2018-01-01T11:19:44.791Z,996.04
2018-01-01T11:20:53.402Z,996.03
2018-01-01T11:22:01.996Z,995.98
2018-01-01T11:23:10.598Z,995.98
2018-01-01T11:24:19.219Z,995.92
2018-01-01T11:25:27.810Z,995.93
2018-01-01T11:26:36.662Z,995.92
2018-01-01T11:27:45.270Z,995.89
2018-01-01T11:28:53.873Z,995.9
2018-01-01T11:30:02.496Z,995.86
2018-01-01T11:31:11.349Z,995.85
2018-01-01T11:32:19.948Z,995.81
2018-01-01T11:33:28.556Z,995.87
2018-01-01T11:34:37.152Z,995.82
2018-01-01T11:35:46.005Z,995.77
2018-01-01T11:36:54.619Z,995.75
2018-01-01T11:38:03.220Z,995.73
2018-01-01T11:39:11.812Z,995.73
2018-01-01T11:40:20.425Z,995.72
2018-01-01T11:41:29.028Z,995.71
2018-01-01T11:42:37.631Z,995.68
2018-01-01T11:43:46.229Z,995.68
2018-01-01T11:44:54.844Z,995.61
2018-01-01T11:46:03.436Z,995.62
2018-01-01T11:47:12.036Z,995.62
2018-01-01T11:48:20.631Z,995.64
2018-01-01T11:49:29.243Z,995.66
2018-01-01T11:50:38.105Z,995.58
2018-01-01T11:51:46.695Z,995.59
2018-01-01T11:52:55.302Z,995.62
2018-01-01T11:54:03.935Z,995.58
2018-01-01T11:55:12.526Z,995.61
2018-01-01T11:56:21.130Z,995.62
2018-01-01T11:57:29.729Z,995.53
2018-01-01T11:58:38.343Z,995.52
2018-01-01T11:59:46.947Z,995.54
2018-01-01T12:00:55.539Z,995.51
2018-01-01T12:02:04.147Z,995.5
2018-01-01T12:03:13.012Z,995.52
2018-01-01T12:04:21.609Z,995.51
2018-01-01T12:05:30.472Z,995.52
2018-01-01T12:06:39.086Z,995.51
2018-01-01T12:07:47.677Z,995.46
2018-01-01T12:08:56.279Z,995.45
2018-01-01T12:10:05.157Z,995.41
2018-01-01T12:11:13.749Z,995.4
2018-01-01T12:12:22.364Z,995.34
2018-01-01T12:13:30.952Z,995.32
2018-01-01T12:14:39.565Z,995.3
2018-01-01T12:15:48.176Z,995.31
2018-01-01T12:16:56.772Z,995.25
2018-01-01T12:18:05.376Z,995.23
2018-01-01T12:19:13.990Z,995.25
2018-01-01T12:20:22.584Z,995.21
2018-01-01T12:21:31.438Z,995.17
2018-01-01T12:22:40.053Z,995.2
2018-01-01T12:23:48.656Z,995.13
2018-01-01T12:24:57.247Z,995.16
2018-01-01T12:26:05.861Z,995.14
2018-01-01T12:27:14.471Z,995.11
2018-01-01T12:28:23.312Z,995.11
2018-01-01T12:29:31.922Z,995.11
2018-01-01T12:30:40.530Z,995.09
2018-01-01T12:31:49.124Z,995.05
2018-01-01T12:32:57.731Z,995.03
2018-01-01T12:34:06.346Z,995.04
2018-01-01T12:35:14.937Z,995
2018-01-01T12:36:23.540Z,995.02
2018-01-01T12:37:32.154Z,995.04
2018-01-01T12:38:40.752Z,995.03
2018-01-01T12:39:49.353Z,995.04
2018-01-01T12:40:57.956Z,994.98
2018-01-01T12:42:06.561Z,994.98
2018-01-01T12:43:15.176Z,994.97
2018-01-01T12:44:23.768Z,994.95
2018-01-01T12:45:32.370Z,994.91
2018-01-01T12:46:40.984Z,994.92
2018-01-01T12:47:49.588Z,994.89
2018-01-01T12:48:58.186Z,994.89
2018-01-01T12:50:06.799Z,994.89
2018-01-01T12:51:15.399Z,994.83
2018-01-01T12:52:24.252Z,994.88
2018-01-01T12:53:32.864Z,994.86
2018-01-01T12:54:41.470Z,994.79
2018-01-01T12:55:50.075Z,994.75
2018-01-01T12:56:58.673Z,994.7
2018-01-01T12:58:07.267Z,994.67
2018-01-01T12:59:15.881Z,994.67
2018-01-01T13:00:24.482Z,994.66
2018-01-01T13:01:33.393Z,994.66
2018-01-01T13:02:42.006Z,994.67
2018-01-01T13:03:50.611Z,994.63
2018-01-01T13:04:59.204Z,994.61
2018-01-01T13:06:07.818Z,994.61
2018-01-01T13:07:16.427Z,994.61
2018-01-01T13:08:25.025Z,994.61
2018-01-01T13:09:33.890Z,994.58
2018-01-01T13:10:42.484Z,994.58
2018-01-01T13:11:51.359Z,994.59
2018-01-01T13:12:59.964Z,994.53
2018-01-01T13:14:08.559Z,994.56
2018-01-01T13:15:17.167Z,994.53
2018-01-01T13:16:25.776Z,994.56
2018-01-01T13:17:34.375Z,994.54
2018-01-01T13:18:42.983Z,994.52
2018-01-01T13:19:51.591Z,994.49
2018-01-01T13:21:00.186Z,994.49
2018-01-01T13:22:09.046Z,994.51
2018-01-01T13:23:17.656Z,994.44
2018-01-01T13:24:26.255Z,994.44
2018-01-01T13:25:34.866Z,994.4
2018-01-01T13:26:43.460Z,994.38
2018-01-01T13:27:52.070Z,994.36
2018-01-01T13:29:00.683Z,994.3
2018-01-01T13:30:09.541Z,994.36
2018-01-01T13:31:18.146Z,994.35
2018-01-01T13:32:26.764Z,994.29
2018-01-01T13:33:35.361Z,994.3
2018-01-01T13:34:43.957Z,994.29
2018-01-01T13:35:52.831Z,994.29
2018-01-01T13:37:01.431Z,994.19
2018-01-01T13:38:10.027Z,994.17
2018-01-01T13:39:18.635Z,994.15
2018-01-01T13:40:27.231Z,994.15
2018-01-01T13:41:35.847Z,994.21
2018-01-01T13:42:44.464Z,994.17
2018-01-01T13:43:53.046Z,994.16
2018-01-01T13:45:01.660Z,994.08
2018-01-01T13:46:10.257Z,994.06
2018-01-01T13:47:18.849Z,994.08
2018-01-01T13:48:27.462Z,994.01
2018-01-01T13:49:36.074Z,993.98
2018-01-01T13:50:44.660Z,993.96
2018-01-01T13:51:53.273Z,993.91
2018-01-01T13:53:01.877Z,993.97
2018-01-01T13:54:10.478Z,993.94
2018-01-01T13:55:19.079Z,993.93
2018-01-01T13:56:27.675Z,993.91
2018-01-01T13:57:36.288Z,993.9
2018-01-01T13:58:44.895Z,993.87
2018-01-01T13:59:53.747Z,993.84
2018-01-01T14:01:02.358Z,993.8
2018-01-01T14:02:11.493Z,993.81
2018-01-01T14:03:20.081Z,993.74
2018-01-01T14:04:28.694Z,993.75
2018-01-01T14:05:37.299Z,993.73
2018-01-01T14:06:45.895Z,993.76
2018-01-01T14:07:54.496Z,993.71
2018-01-01T14:09:03.104Z,993.66
2018-01-01T14:10:11.705Z,993.65
2018-01-01T14:11:20.318Z,993.61
2018-01-01T14:12:28.919Z,993.65
2018-01-01T14:13:37.522Z,993.66
2018-01-01T14:14:46.135Z,993.62
2018-01-01T14:15:54.729Z,993.59
2018-01-01T14:17:03.328Z,993.57
2018-01-01T14:18:11.946Z,993.55